Time,TemperatureF,DewpointF,PressureIn,WindDirection,WindDirectionDegrees,WindSpeedMPH,WindSpeedGustMPH,Humidity,HourlyPrecipIn,Conditions,Clouds,dailyrainin,SoftwareType,DateUTC
2013-06-03 00:04:00,39.9,25.0,29.85,WSW,250,0.0,1.0,55,0.00,,,0.00,weatherlink.com 1.10,2013-06-03 06:04:00,
2013-06-03 00:19:00,38.8,25.0,29.85,WSW,250,0.0,1.0,57,0.00,,,0.00,weatherlink.com 1.10,2013-06-03 06:19:00,
2013-06-03 00:34:00,37.9,25.0,29.85,WSW,250,0.0,1.0,61,0.00,,,0.00,weatherlink.com 1.10,2013-06-03 06:34:00,
2013-06-03 00:49:00,37.5,26.0,29.84,WSW,248,0.0,1.0,63,0.00,,,0.00,weatherlink.com 1.10,2013-06-03 06:49:00,
2013-06-03 01:04:00,37.1,25.0,29.84,WSW,248,0.0,1.0,63,0.00,,,0.00,weatherlink.com 1.10,2013-06-03 07:04:00,
2013-06-03 01:19:00,37.2,26.0,29.83,West,269,1.0,1.0,63,0.00,,,0.00,weatherlink.com 1.10,2013-06-03 07:19:00,
2013-06-03 01:34:00,36.9,26.0,29.83,WSW,257,0.0,1.0,64,0.00,,,0.00,weatherlink.com 1.10,2013-06-03 07:34:00,
2013-06-03 01:49:00,36.2,26.0,29.82,WSW,249,0.0,1.0,66,0.00,,,0.00,weatherlink.com 1.10,2013-06-03 07:49:00,
2013-06-03 02:04:00,35.3,25.0,29.83,WSW,249,0.0,1.0,67,0.00,,,0.00,weatherlink.com 1.10,2013-06-03 08:04:00,
2013-06-03 02:19:00,34.8,25.0,29.82,WSW,249,0.0,1.0,68,0.00,,,0.00,weatherlink.com 1.10,2013-06-03 08:19:00,
2013-06-03 02:34:00,34.5,26.0,29.82,WSW,249,0.0,1.0,71,0.00,,,0.00,weatherlink.com 1.10,2013-06-03 08:34:00,
2013-06-03 02:49:00,34.3,26.0,29.82,WSW,249,0.0,1.0,71,0.00,,,0.00,weatherlink.com 1.10,2013-06-03 08:49:00,
2013-06-03 03:04:00,34.0,26.0,29.82,WSW,248,0.0,1.0,71,0.00,,,0.00,weatherlink.com 1.10,2013-06-03 09:04:00,
2013-06-03 03:19:00,33.7,26.0,29.81,WSW,249,0.0,1.0,73,0.00,,,0.00,weatherlink.com 1.10,2013-06-03 09:19:00,
2013-06-03 03:34:00,33.4,26.0,29.81,WSW,249,0.0,1.0,73,0.00,,,0.00,weatherlink.com 1.10,2013-06-03 09:34:00,
2013-06-03 03:49:00,32.9,25.0,29.81,WSW,249,0.0,1.0,74,0.00,,,0.00,weatherlink.com 1.10,2013-06-03 09:49:00,
2013-06-03 04:04:00,32.5,26.0,29.81,WSW,249,0.0,1.0,76,0.00,,,0.00,weatherlink.com 1.10,2013-06-03 10:04:00,
2013-06-03 04:19:00,32.1,25.0,29.81,WSW,249,1.0,1.0,76,0.00,,,0.00,weatherlink.com 1.10,2013-06-03 10:19:00,
2013-06-03 04:34:00,31.9,25.0,29.81,WSW,249,0.0,1.0,76,0.00,,,0.00,weatherlink.com 1.10,2013-06-03 10:34:00,
2013-06-03 04:50:00,31.8,25.0,29.81,WSW,248,0.0,1.0,77,0.00,,,0.00,weatherlink.com 1.10,2013-06-03 10:50:00,
2013-06-03 05:05:00,31.8,26.0,29.80,WSW,248,0.0,2.0,78,0.00,,,0.00,weatherlink.com 1.10,2013-06-03 11:05:00,
2013-06-03 05:20:00,32.0,26.0,29.81,WSW,248,1.0,2.0,77,0.00,,,0.00,weatherlink.com 1.10,2013-06-03 11:20:00,
2013-06-03 05:35:00,32.3,26.0,29.81,WSW,247,0.0,2.0,76,0.00,,,0.00,weatherlink.com 1.10,2013-06-03 11:35:00,
2013-06-03 05:50:00,31.7,26.0,29.81,WSW,247,0.0,1.0,78,0.00,,,0.00,weatherlink.com 1.10,2013-06-03 11:50:00,
2013-06-03 06:05:00,31.5,26.0,29.81,WSW,247,0.0,1.0,80,0.00,,,0.00,weatherlink.com 1.10,2013-06-03 12:05:00,
2013-06-03 06:20:00,31.8,26.0,29.82,WSW,247,0.0,1.0,79,0.00,,,0.00,weatherlink.com 1.10,2013-06-03 12:20:00,
2013-06-03 06:35:00,32.3,26.0,29.82,WSW,248,0.0,1.0,79,0.00,,,0.00,weatherlink.com 1.10,2013-06-03 12:35:00,
2013-06-03 06:50:00,33.1,27.0,29.82,WSW,248,1.0,1.0,78,0.00,,,0.00,weatherlink.com 1.10,2013-06-03 12:50:00,
2013-06-03 07:05:00,34.3,28.0,29.81,WSW,248,0.0,1.0,78,0.00,,,0.00,weatherlink.com 1.10,2013-06-03 13:05:00,
2013-06-03 07:20:00,35.9,29.0,29.81,WSW,248,0.0,1.0,75,0.00,,,0.00,weatherlink.com 1.10,2013-06-03 13:20:00,
2013-06-03 07:35:00,37.9,30.0,29.81,WSW,248,0.0,1.0,73,0.00,,,0.00,weatherlink.com 1.10,2013-06-03 13:35:00,
2013-06-03 07:50:00,40.6,31.0,29.80,WSW,248,0.0,1.0,69,0.00,,,0.00,weatherlink.com 1.10,2013-06-03 13:50:00,
2013-06-03 08:05:00,42.9,32.0,29.80,WSW,248,0.0,0.0,66,0.00,,,0.00,weatherlink.com 1.10,2013-06-03 14:05:00,
2013-06-03 08:20:00,46.9,31.0,29.79,SE,136,0.0,1.0,54,0.00,,,0.00,weatherlink.com 1.10,2013-06-03 14:20:00,
2013-06-03 08:35:00,49.5,29.0,29.79,SE,136,0.0,1.0,46,0.00,,,0.00,weatherlink.com 1.10,2013-06-03 14:35:00,
2013-06-03 08:50:00,52.8,29.0,29.78,ESE,109,1.0,3.0,40,0.00,,,0.00,weatherlink.com 1.10,2013-06-03 14:50:00,
2013-06-03 09:05:00,54.9,30.0,29.77,ESE,120,1.0,5.0,39,0.00,,,0.00,weatherlink.com 1.10,2013-06-03 15:05:00,
2013-06-03 09:20:00,57.9,29.0,29.77,ESE,110,2.0,4.0,33,0.00,,,0.00,weatherlink.com 1.10,2013-06-03 15:20:00,
2013-06-03 09:35:00,59.7,25.0,29.76,East,86,2.0,7.0,26,0.00,,,0.00,weatherlink.com 1.10,2013-06-03 15:35:00,
2013-06-03 09:50:00,60.7,25.0,29.76,East,82,1.0,9.0,25,0.00,,,0.00,weatherlink.com 1.10,2013-06-03 15:50:00,
2013-06-03 10:05:00,61.7,25.0,29.75,ESE,107,1.0,8.0,25,0.00,,,0.00,weatherlink.com 1.10,2013-06-03 16:05:00,
2013-06-03 10:20:00,62.3,25.0,29.75,SE,129,0.0,10.0,24,0.00,,,0.00,weatherlink.com 1.10,2013-06-03 16:20:00,
2013-06-03 10:36:00,63.3,24.0,29.75,ESE,112,0.0,8.0,22,0.00,,,0.00,weatherlink.com 1.10,2013-06-03 16:36:00,
2013-06-03 10:51:00,64.5,26.0,29.75,ESE,110,0.0,8.0,23,0.00,,,0.00,weatherlink.com 1.10,2013-06-03 16:51:00,
2013-06-03 11:06:00,65.4,24.0,29.75,WNW,291,1.0,14.0,21,0.00,,,0.00,weatherlink.com 1.10,2013-06-03 17:06:00,
2013-06-03 11:21:00,66.2,24.0,29.74,ENE,59,13.0,15.0,20,0.00,,,0.00,weatherlink.com 1.10,2013-06-03 17:21:00,
2013-06-03 11:36:00,66.6,26.0,29.74,SSE,167,2.0,15.0,22,0.00,,,0.00,weatherlink.com 1.10,2013-06-03 17:36:00,
2013-06-03 11:51:00,67.4,24.0,29.73,ESE,106,3.0,10.0,19,0.00,,,0.00,weatherlink.com 1.10,2013-06-03 17:51:00,
2013-06-03 12:06:00,67.9,24.0,29.72,West,280,2.0,13.0,19,0.00,,,0.00,weatherlink.com 1.10,2013-06-03 18:06:00,
2013-06-03 12:36:00,65.4,22.0,29.73,ESE,114,13.0,16.0,19,0.00,,,0.00,weatherlink.com 1.10,2013-06-03 18:36:00,
2013-06-03 12:51:00,64.1,22.0,29.72,East,94,2.0,12.0,20,0.00,,,0.00,weatherlink.com 1.10,2013-06-03 18:51:00,
2013-06-03 13:06:00,66.0,22.0,29.71,ENE,60,0.0,11.0,19,0.00,,,0.00,weatherlink.com 1.10,2013-06-03 19:06:00,
2013-06-03 13:21:00,66.7,23.0,29.70,ESE,118,12.0,19.0,19,0.00,,,0.00,weatherlink.com 1.10,2013-06-03 19:21:00,
2013-06-03 13:51:00,67.5,21.0,29.70,WNW,289,5.0,17.0,17,0.00,,,0.00,weatherlink.com 1.10,2013-06-03 19:51:00,
2013-06-03 14:06:00,67.7,23.0,29.70,East,90,3.0,16.0,18,0.00,,,0.00,weatherlink.com 1.10,2013-06-03 20:06:00,
2013-06-03 14:21:00,69.0,22.0,29.69,East,98,3.0,28.0,17,0.00,,,0.00,weatherlink.com 1.10,2013-06-03 20:21:00,
2013-06-03 14:36:00,68.1,23.0,29.69,East,100,5.0,12.0,18,0.00,,,0.00,weatherlink.com 1.10,2013-06-03 20:36:00,
2013-06-03 14:51:00,68.3,24.0,29.68,West,261,1.0,14.0,19,0.00,,,0.00,weatherlink.com 1.10,2013-06-03 20:51:00,
2013-06-03 15:06:00,65.8,22.0,29.70,WSW,251,5.0,17.0,19,0.00,,,0.00,weatherlink.com 1.10,2013-06-03 21:06:00,
2013-06-03 15:36:00,66.1,25.0,29.70,East,95,2.0,9.0,21,0.00,,,0.00,weatherlink.com 1.10,2013-06-03 21:36:00,
2013-06-03 15:51:00,65.8,25.0,29.70,ESE,103,10.0,16.0,21,0.00,,,0.00,weatherlink.com 1.10,2013-06-03 21:51:00,
2013-06-03 16:06:00,62.1,24.0,29.73,ESE,111,5.0,18.0,23,0.00,,,0.00,weatherlink.com 1.10,2013-06-03 22:06:00,
2013-06-03 16:21:00,63.9,25.0,29.71,ESE,103,1.0,8.0,23,0.00,,,0.00,weatherlink.com 1.10,2013-06-03 22:21:00,
2013-06-03 16:36:00,65.2,28.0,29.70,ESE,103,9.0,12.0,25,0.00,,,0.00,weatherlink.com 1.10,2013-06-03 22:36:00,
2013-06-03 16:51:00,64.4,28.0,29.71,SE,126,4.0,17.0,25,0.00,,,0.00,weatherlink.com 1.10,2013-06-03 22:51:00,
2013-06-03 17:06:00,62.9,27.0,29.72,ESE,117,4.0,19.0,26,0.00,,,0.00,weatherlink.com 1.10,2013-06-03 23:06:00,
2013-06-03 17:21:00,62.4,29.0,29.75,ESE,115,6.0,20.0,28,0.00,,,0.00,weatherlink.com 1.10,2013-06-03 23:21:00,
2013-06-03 17:36:00,58.1,31.0,29.77,West,273,2.0,14.0,36,0.00,,,0.00,weatherlink.com 1.10,2013-06-03 23:36:00,
2013-06-03 17:51:00,56.8,31.0,29.75,WSW,254,0.0,11.0,38,0.00,,,0.00,weatherlink.com 1.10,2013-06-03 23:51:00,
2013-06-03 18:06:00,59.4,32.0,29.73,NW,326,0.0,2.0,35,0.00,,,0.00,weatherlink.com 1.10,2013-06-04 00:06:00,
2013-06-03 18:21:00,59.8,30.0,29.73,WNW,284,0.0,3.0,33,0.00,,,0.00,weatherlink.com 1.10,2013-06-04 00:21:00,
2013-06-03 18:36:00,60.3,29.0,29.72,WSW,251,0.0,3.0,31,0.00,,,0.00,weatherlink.com 1.10,2013-06-04 00:36:00,
2013-06-03 18:51:00,61.4,27.0,29.72,NW,307,0.0,6.0,27,0.00,,,0.00,weatherlink.com 1.10,2013-06-04 00:51:00,
2013-06-03 19:06:00,61.2,29.0,29.73,ESE,111,1.0,7.0,30,0.00,,,0.00,weatherlink.com 1.10,2013-06-04 01:06:00,
2013-06-03 19:21:00,60.9,28.0,29.74,East,100,2.0,12.0,29,0.00,,,0.00,weatherlink.com 1.10,2013-06-04 01:21:00,
2013-06-03 19:36:00,59.7,29.0,29.75,ESE,108,1.0,6.0,31,0.00,,,0.00,weatherlink.com 1.10,2013-06-04 01:36:00,
2013-06-03 19:51:00,57.2,30.0,29.76,ESE,107,0.0,5.0,35,0.00,,,0.00,weatherlink.com 1.10,2013-06-04 01:51:00,
2013-06-03 20:06:00,57.1,28.0,29.77,ESE,116,2.0,14.0,33,0.00,,,0.00,weatherlink.com 1.10,2013-06-04 02:06:00,
2013-06-03 20:21:00,56.3,28.0,29.77,NE,42,0.0,5.0,34,0.00,,,0.00,weatherlink.com 1.10,2013-06-04 02:21:00,
2013-06-03 20:36:00,54.7,29.0,29.79,East,79,0.0,1.0,38,0.00,,,0.00,weatherlink.com 1.10,2013-06-04 02:36:00,
2013-06-03 20:52:00,51.5,30.0,29.79,East,79,0.0,1.0,44,0.00,,,0.00,weatherlink.com 1.10,2013-06-04 02:52:00,
2013-06-03 21:06:00,50.5,29.0,29.79,East,90,1.0,1.0,44,0.00,,,0.00,weatherlink.com 1.10,2013-06-04 03:06:00,
2013-06-03 21:21:00,53.8,29.0,29.80,SSE,153,0.0,7.0,38,0.00,,,0.00,weatherlink.com 1.10,2013-06-04 03:21:00,
2013-06-03 21:36:00,50.3,29.0,29.80,South,183,0.0,1.0,44,0.00,,,0.00,weatherlink.com 1.10,2013-06-04 03:36:00,
2013-06-03 21:52:00,47.6,29.0,29.80,SW,217,0.0,1.0,49,0.00,,,0.00,weatherlink.com 1.10,2013-06-04 03:52:00,
2013-06-03 22:21:00,44.8,29.0,29.82,WSW,255,0.0,2.0,54,0.00,,,0.00,weatherlink.com 1.10,2013-06-04 04:21:00,
2013-06-03 22:52:00,43.9,29.0,29.83,WSW,252,1.0,1.0,56,0.00,,,0.00,weatherlink.com 1.10,2013-06-04 04:52:00,
2013-06-03 23:07:00,43.4,29.0,29.82,WSW,253,0.0,2.0,57,0.00,,,0.00,weatherlink.com 1.10,2013-06-04 05:07:00,
2013-06-03 23:22:00,42.5,29.0,29.83,WSW,252,0.0,1.0,59,0.00,,,0.00,weatherlink.com 1.10,2013-06-04 05:22:00,
2013-06-03 23:37:00,41.9,29.0,29.84,WSW,252,0.0,1.0,60,0.00,,,0.00,weatherlink.com 1.10,2013-06-04 05:37:00,
2013-06-03 23:52:00,41.1,29.0,29.84,WSW,251,1.0,1.0,62,0.00,,,0.00,weatherlink.com 1.10,2013-06-04 05:52:00,